Terminal Aerodrome Forecast
Issued by NWS Twin Cities, MN

Home | Current Version | Previous Version | Text Only | Print | Product List | Glossary Off
Versions: 1 2 3 4 5 6 7 8 9 10 11 12 13 14 15 16 17 18 19

824
FTUS43 KMPX 081722
TAFSTC
TAF
KSTC 081722Z 0818/0918 32014G24KT P6SM -SN BKN025 BKN050
     FM090000 32011KT P6SM SCT015 BKN020
     FM091200 30006KT P6SM BKN025=

USA.gov is the U.S. government's official web portal to all federal, state and local government web resources and services.